Time;durP1;ratioP1;P1;durP2;ratioP2;P2;SDS_P1;SDS_P2;PMS_P1;PMS_P2;Temp;Humidity;BMP_temperature;BMP_pressure;BME280_temperature;BME280_humidity;BME280_pressure;Samples;Min_cycle;Max_cycle;Signal;HPM_P1;HPM_P2
2022/12/31 00:02:06;;;;;;;5.30;1.13;;;25.50;99.90;;;;;;5083131;28;20215;-86
2022/12/31 00:04:40;;;;;;;4.40;1.20;;;25.60;99.90;;;;;;5066744;28;20550;-86
2022/12/31 00:07:10;;;;;;;8.35;1.30;;;25.70;99.90;;;;;;5064946;28;20647;-86
2022/12/31 00:09:41;;;;;;;2.78;1.08;;;25.70;99.90;;;;;;5072407;28;20305;-86
2022/12/31 00:12:12;;;;;;;4.88;1.00;;;25.70;99.90;;;;;;5072787;28;20275;-87
2022/12/31 00:14:43;;;;;;;4.30;1.10;;;25.70;99.90;;;;;;5064622;28;20235;-86
2022/12/31 00:17:14;;;;;;;3.85;1.00;;;25.80;99.90;;;;;;5072829;28;20202;-86
2022/12/31 00:19:47;;;;;;;4.60;1.02;;;26.00;99.90;;;;;;5071344;28;20596;-86
2022/12/31 00:22:18;;;;;;;4.88;1.10;;;25.90;99.90;;;;;;5088295;28;20555;-85
2022/12/31 00:24:49;;;;;;;8.60;1.50;;;25.70;99.90;;;;;;5068004;28;20283;-85
2022/12/31 00:27:21;;;;;;;5.85;1.20;;;25.60;99.90;;;;;;5072472;28;20223;-86
2022/12/31 00:29:52;;;;;;;4.35;1.20;;;25.60;99.90;;;;;;5067440;28;20199;-84
2022/12/31 00:32:22;;;;;;;7.50;1.50;;;25.70;99.90;;;;;;5069432;28;20208;-85
2022/12/31 00:34:59;;;;;;;5.40;1.17;;;25.80;99.90;;;;;;5070965;28;20220;-85
2022/12/31 00:37:30;;;;;;;6.30;1.20;;;25.70;99.90;;;;;;5075803;28;20218;-86
2022/12/31 00:40:01;;;;;;;6.53;1.33;;;25.80;99.90;;;;;;5059891;28;20233;-85
2022/12/31 00:42:33;;;;;;;5.90;1.20;;;25.80;99.90;;;;;;5055517;28;20284;-85
2022/12/31 00:45:04;;;;;;;8.98;1.58;;;25.80;99.90;;;;;;5056233;28;20215;-85
2022/12/31 00:47:34;;;;;;;7.38;1.65;;;25.80;99.90;;;;;;5070781;28;20196;-84
2022/12/31 00:50:08;;;;;;;7.93;1.48;;;25.80;99.90;;;;;;5065936;28;20662;-85
2022/12/31 00:52:43;;;;;;;7.15;1.50;;;25.80;99.90;;;;;;5070788;28;20283;-85
2022/12/31 00:55:13;;;;;;;6.10;1.45;;;25.80;99.90;;;;;;5062276;28;20291;-85
2022/12/31 00:57:44;;;;;;;6.30;1.20;;;25.70;99.90;;;;;;5052703;28;20207;-86
2022/12/31 01:00:16;;;;;;;5.53;1.02;;;25.80;99.90;;;;;;5068244;28;20259;-85
2022/12/31 01:02:47;;;;;;;4.53;1.20;;;25.80;99.90;;;;;;5069806;28;20618;-85
2022/12/31 01:05:20;;;;;;;6.88;1.30;;;25.80;99.90;;;;;;5083849;28;20622;-82
2022/12/31 01:07:51;;;;;;;5.47;1.17;;;25.80;99.90;;;;;;5086237;28;20223;-86
2022/12/31 01:13:05;;;;;;;4.82;1.27;;;25.90;99.90;;;;;;5064981;28;20199;-85
2022/12/31 01:15:39;;;;;;;5.25;1.38;;;25.90;99.90;;;;;;5057381;28;20212;-84
2022/12/31 01:18:10;;;;;;;5.05;1.35;;;26.10;99.90;;;;;;5066906;28;20627;-86
2022/12/31 01:20:45;;;;;;;4.00;1.00;;;26.30;99.90;;;;;;5071911;28;20563;-86
2022/12/31 01:23:16;;;;;;;5.15;1.23;;;26.30;99.90;;;;;;5066038;28;20223;-85
2022/12/31 01:25:46;;;;;;;6.95;1.50;;;26.30;99.90;;;;;;5070393;28;20184;-86
2022/12/31 01:28:17;;;;;;;7.65;1.33;;;26.50;99.90;;;;;;5068265;28;20192;-85
2022/12/31 01:30:49;;;;;;;7.22;1.40;;;26.50;99.90;;;;;;5067842;28;20685;-84
2022/12/31 01:33:20;;;;;;;4.70;1.20;;;26.50;99.90;;;;;;5072089;28;20196;-85
2022/12/31 01:35:53;;;;;;;6.00;1.50;;;26.60;99.90;;;;;;5076835;28;20218;-84
2022/12/31 01:38:24;;;;;;;6.13;1.20;;;26.70;99.90;;;;;;5077125;28;20274;-85
2022/12/31 01:40:54;;;;;;;4.93;1.27;;;26.90;99.90;;;;;;5073892;28;20585;-86
2022/12/31 01:43:25;;;;;;;9.50;1.52;;;27.00;99.90;;;;;;5067396;28;20188;-85
2022/12/31 01:45:57;;;;;;;3.85;1.08;;;26.80;99.90;;;;;;5069285;28;20188;-84
2022/12/31 01:48:29;;;;;;;5.03;1.45;;;26.80;99.90;;;;;;5064631;28;20212;-84
2022/12/31 01:51:06;;;;;;;6.72;1.30;;;26.80;99.90;;;;;;5059709;28;20230;-84
2022/12/31 01:53:39;;;;;;;4.80;1.13;;;26.80;99.90;;;;;;5065704;28;20210;-85
2022/12/31 01:56:11;;;;;;;4.93;1.17;;;26.80;99.90;;;;;;5061661;28;20268;-86
2022/12/31 01:58:45;;;;;;;3.83;0.90;;;26.80;99.90;;;;;;5070908;28;20208;-85
2022/12/31 02:01:19;;;;;;;4.00;1.15;;;26.80;99.90;;;;;;5062780;28;20230;-85
2022/12/31 02:03:50;;;;;;;5.28;1.15;;;26.70;99.90;;;;;;5062872;28;20198;-85
2022/12/31 02:06:26;;;;;;;6.78;1.20;;;26.70;99.90;;;;;;5069718;28;20206;-86
2022/12/31 02:08:57;;;;;;;4.90;1.10;;;26.60;99.90;;;;;;5086716;28;20300;-85
2022/12/31 02:11:35;;;;;;;5.40;1.00;;;26.60;99.90;;;;;;5066317;28;20606;-86
2022/12/31 02:14:11;;;;;;;3.95;0.93;;;26.60;99.90;;;;;;5056149;28;20204;-87
2022/12/31 02:16:51;;;;;;;3.65;1.10;;;26.50;99.90;;;;;;5074423;28;20199;-84
2022/12/31 02:20:02;;;;;;;4.85;0.98;;;26.40;99.90;;;;;;5063919;28;20636;-84
2022/12/31 02:22:58;;;;;;;5.28;1.30;;;26.30;99.90;;;;;;5054521;28;20227;-85
2022/12/31 02:25:47;;;;;;;5.25;1.10;;;26.10;99.90;;;;;;5085275;28;20255;-84
2022/12/31 02:28:32;;;;;;;3.97;1.15;;;26.20;99.90;;;;;;5070573;28;20264;-83
2022/12/31 02:31:10;;;;;;;5.00;1.08;;;26.20;99.90;;;;;;5077706;28;20737;-84
2022/12/31 02:33:47;;;;;;;8.15;1.35;;;26.00;99.90;;;;;;5070199;28;20291;-84
2022/12/31 02:36:23;;;;;;;5.72;1.30;;;26.00;99.90;;;;;;5067374;28;20264;-83
2022/12/31 02:38:56;;;;;;;3.90;1.20;;;25.90;99.90;;;;;;5066147;28;20196;-85
2022/12/31 02:44:25;;;;;;;3.63;1.40;;;26.20;99.90;;;;;;5064178;28;20690;-84
2022/12/31 02:47:09;;;;;;;3.75;1.50;;;26.30;99.90;;;;;;5075790;28;20199;-85
2022/12/31 02:49:49;;;;;;;4.88;1.30;;;26.30;99.90;;;;;;5059631;28;20192;-84
2022/12/31 02:52:30;;;;;;;5.35;1.15;;;26.20;99.90;;;;;;5070012;28;20259;-83
2022/12/31 02:55:08;;;;;;;6.55;1.20;;;26.00;99.90;;;;;;5060000;28;20683;-85
2022/12/31 02:57:43;;;;;;;4.57;1.17;;;25.80;99.90;;;;;;5056032;28;20670;-85
2022/12/31 03:03:07;;;;;;;4.65;1.13;;;25.50;99.90;;;;;;5054780;28;20261;-85
2022/12/31 03:05:42;;;;;;;6.35;1.33;;;25.50;99.90;;;;;;5055093;28;20206;-86
2022/12/31 03:08:13;;;;;;;7.35;1.30;;;25.30;99.90;;;;;;5057309;28;20222;-86
2022/12/31 03:10:44;;;;;;;6.47;1.38;;;25.30;99.90;;;;;;5048042;28;20263;-87
2022/12/31 03:13:13;;;;;;;5.63;1.50;;;25.30;99.90;;;;;;5067613;28;20221;-87
2022/12/31 03:15:44;;;;;;;4.63;1.20;;;25.30;99.90;;;;;;5057112;28;21176;-87
2022/12/31 03:22:26;;;;;;;4.82;1.20;;;25.40;99.90;;;;;;5056958;28;20204;-87
2022/12/31 03:26:48;;;;;;;6.57;1.35;;;25.30;99.90;;;;;;5056532;28;20273;-86
2022/12/31 03:29:19;;;;;;;4.03;1.23;;;25.30;99.90;;;;;;5056012;28;20271;-84
2022/12/31 03:31:50;;;;;;;6.00;1.80;;;25.30;99.90;;;;;;5059771;28;20200;-84
2022/12/31 03:34:24;;;;;;;5.95;1.80;;;25.40;99.90;;;;;;5055124;28;20675;-85
2022/12/31 03:36:55;;;;;;;5.05;1.30;;;25.50;99.90;;;;;;5061065;28;20287;-85
2022/12/31 03:39:26;;;;;;;4.90;1.60;;;25.60;99.90;;;;;;5064849;28;20224;-86
2022/12/31 03:41:57;;;;;;;6.53;1.50;;;25.70;99.90;;;;;;5064156;28;20189;-83
2022/12/31 03:44:28;;;;;;;4.88;1.30;;;25.70;99.90;;;;;;5062790;28;20201;-84
2022/12/31 03:46:58;;;;;;;7.30;1.50;;;25.70;99.90;;;;;;5053100;28;20715;-84
2022/12/31 03:49:31;;;;;;;9.10;1.88;;;25.60;99.90;;;;;;5068400;28;20204;-84
2022/12/31 03:52:02;;;;;;;6.35;1.48;;;25.70;99.90;;;;;;5069740;28;20198;-85
2022/12/31 03:54:33;;;;;;;9.93;1.60;;;25.70;99.90;;;;;;5071304;28;20195;-85
2022/12/31 03:57:04;;;;;;;6.55;1.30;;;25.70;99.90;;;;;;5072129;28;20660;-85
2022/12/31 03:59:35;;;;;;;6.40;1.45;;;25.60;99.90;;;;;;5061722;28;20235;-83
2022/12/31 04:02:06;;;;;;;2.65;0.80;;;25.70;99.90;;;;;;5085930;28;20609;-84
2022/12/31 04:04:39;;;;;;;4.25;1.02;;;25.70;99.90;;;;;;5070022;28;20202;-84
2022/12/31 04:07:10;;;;;;;3.17;0.95;;;25.80;99.90;;;;;;5071345;28;20196;-85
2022/12/31 04:09:40;;;;;;;5.65;1.38;;;25.80;99.90;;;;;;5054497;28;20197;-85
2022/12/31 04:12:11;;;;;;;5.47;1.30;;;25.90;99.90;;;;;;5072098;28;20262;-83
2022/12/31 04:14:42;;;;;;;6.45;1.10;;;25.80;99.90;;;;;;5072013;28;20200;-84
2022/12/31 04:17:13;;;;;;;5.78;1.38;;;25.80;99.90;;;;;;5081775;28;20250;-85
2022/12/31 04:19:46;;;;;;;5.10;1.20;;;25.80;99.90;;;;;;5070127;28;20221;-85
2022/12/31 04:22:19;;;;;;;6.82;1.38;;;25.80;99.90;;;;;;5071860;28;20210;-85
2022/12/31 04:24:50;;;;;;;3.85;1.15;;;25.70;99.90;;;;;;5066749;28;20697;-84
2022/12/31 04:27:21;;;;;;;4.72;1.10;;;25.50;99.90;;;;;;5072648;28;20283;-85
2022/12/31 04:29:52;;;;;;;6.95;1.27;;;25.40;99.90;;;;;;5051297;28;21895;-85
2022/12/31 04:32:22;;;;;;;7.10;1.75;;;25.40;99.90;;;;;;5061658;28;20218;-86
2022/12/31 04:34:56;;;;;;;5.15;1.10;;;25.40;99.90;;;;;;5055172;28;20210;-85
2022/12/31 04:37:27;;;;;;;4.22;1.33;;;25.30;99.90;;;;;;5050984;28;20308;-86
2022/12/31 04:39:58;;;;;;;8.40;1.48;;;25.30;99.90;;;;;;5052420;28;20231;-87
2022/12/31 04:42:29;;;;;;;8.38;1.77;;;25.20;99.90;;;;;;5054028;28;20306;-86
2022/12/31 04:45:00;;;;;;;6.65;1.60;;;25.20;99.90;;;;;;5060929;28;20237;-86
2022/12/31 04:47:31;;;;;;;6.53;1.50;;;25.30;99.90;;;;;;5066726;28;20242;-86
2022/12/31 04:50:04;;;;;;;5.57;1.40;;;25.20;99.90;;;;;;5054426;28;20272;-86
2022/12/31 04:52:35;;;;;;;7.22;1.60;;;25.40;99.90;;;;;;5074011;28;20270;-87
2022/12/31 04:55:06;;;;;;;6.60;1.33;;;25.50;99.90;;;;;;5072745;28;20190;-86
2022/12/31 04:57:37;;;;;;;5.85;1.30;;;25.50;99.90;;;;;;5073032;28;20638;-86
2022/12/31 05:00:08;;;;;;;6.13;1.63;;;25.50;99.90;;;;;;5069703;28;20230;-86
2022/12/31 05:02:40;;;;;;;6.13;1.52;;;25.40;99.90;;;;;;5073045;28;20191;-86
2022/12/31 05:05:18;;;;;;;8.63;1.77;;;25.40;99.90;;;;;;5080503;28;20246;-85
2022/12/31 05:07:48;;;;;;;10.10;1.88;;;25.30;99.90;;;;;;5079224;28;20295;-86
2022/12/31 05:10:19;;;;;;;6.88;1.50;;;25.30;99.90;;;;;;5093762;28;20678;-86
2022/12/31 05:12:53;;;;;;;7.43;1.60;;;25.30;99.90;;;;;;5090539;28;20558;-86
2022/12/31 05:15:25;;;;;;;7.20;1.70;;;25.40;99.90;;;;;;5074757;28;20282;-85
2022/12/31 05:17:57;;;;;;;5.75;1.45;;;25.30;99.90;;;;;;5064322;28;20211;-85
2022/12/31 05:20:31;;;;;;;5.85;1.50;;;25.30;99.90;;;;;;5063623;28;20216;-84
2022/12/31 05:23:02;;;;;;;7.43;1.40;;;25.30;99.90;;;;;;5076470;28;20255;-85
2022/12/31 05:25:33;;;;;;;8.20;1.58;;;25.30;99.90;;;;;;5075436;28;20204;-84
2022/12/31 05:28:07;;;;;;;6.55;1.58;;;25.40;99.90;;;;;;5076329;28;20196;-84
2022/12/31 05:30:41;;;;;;;7.07;1.50;;;25.30;99.90;;;;;;5075837;28;20231;-84
2022/12/31 05:33:12;;;;;;;7.20;1.70;;;25.40;99.90;;;;;;5078070;28;20200;-83
2022/12/31 05:35:45;;;;;;;6.57;1.60;;;25.50;99.90;;;;;;5070383;28;20207;-83
2022/12/31 05:38:15;;;;;;;7.32;1.67;;;25.50;99.90;;;;;;5057860;28;20562;-82
2022/12/31 05:40:47;;;;;;;6.95;1.63;;;25.60;99.90;;;;;;5055642;28;20373;-82
2022/12/31 05:43:18;;;;;;;7.90;1.58;;;25.70;99.90;;;;;;5061502;28;20260;-82
2022/12/31 05:45:50;;;;;;;6.60;1.30;;;25.80;99.90;;;;;;5062758;28;20288;-83
2022/12/31 05:48:21;;;;;;;6.00;1.52;;;26.00;99.90;;;;;;5070063;28;20693;-82
2022/12/31 05:50:54;;;;;;;5.60;1.60;;;26.10;99.90;;;;;;5071647;28;20204;-83
2022/12/31 05:53:27;;;;;;;6.30;1.70;;;26.40;99.90;;;;;;5083329;28;20192;-84
2022/12/31 05:55:57;;;;;;;6.40;1.60;;;26.50;99.90;;;;;;5080884;28;20247;-85
2022/12/31 05:58:30;;;;;;;4.80;1.33;;;26.50;99.90;;;;;;5074666;28;20228;-84
2022/12/31 06:01:00;;;;;;;6.20;1.33;;;26.50;99.90;;;;;;5072959;28;20203;-85
2022/12/31 06:03:31;;;;;;;5.18;1.20;;;26.40;99.90;;;;;;5068481;28;20212;-83
2022/12/31 06:06:05;;;;;;;6.43;1.40;;;26.10;99.90;;;;;;5069809;28;20259;-85
2022/12/31 06:08:38;;;;;;;5.32;1.42;;;26.10;99.90;;;;;;5046758;28;20231;-83
2022/12/31 06:11:09;;;;;;;6.53;1.63;;;26.00;99.90;;;;;;5069954;28;20216;-87
2022/12/31 06:13:40;;;;;;;7.38;1.40;;;25.90;99.90;;;;;;5076062;28;20196;-89
2022/12/31 06:16:12;;;;;;;4.90;1.30;;;25.90;99.90;;;;;;5084160;28;20247;-88
2022/12/31 06:18:45;;;;;;;4.68;1.25;;;25.80;99.90;;;;;;5084773;28;20196;-89
2022/12/31 06:21:17;;;;;;;5.70;1.48;;;25.60;99.90;;;;;;5078503;28;20194;-85
2022/12/31 06:23:52;;;;;;;9.48;1.60;;;25.60;99.90;;;;;;5085860;28;20227;-88
2022/12/31 06:26:24;;;;;;;8.60;1.80;;;25.70;99.90;;;;;;5084642;28;20222;-89
2022/12/31 06:28:56;;;;;;;5.75;1.52;;;25.60;99.90;;;;;;5068871;28;20188;-85
2022/12/31 06:31:27;;;;;;;10.25;1.60;;;25.50;99.90;;;;;;5074719;28;20566;-87
2022/12/31 06:33:58;;;;;;;5.35;1.50;;;25.40;99.90;;;;;;5077318;28;20192;-84
2022/12/31 06:36:31;;;;;;;9.70;2.20;;;25.30;99.90;;;;;;5072316;28;20827;-85
2022/12/31 06:39:02;;;;;;;7.70;1.70;;;25.30;99.90;;;;;;5074396;28;20283;-85
2022/12/31 06:41:34;;;;;;;7.18;1.65;;;25.40;99.90;;;;;;5057815;28;20188;-86
2022/12/31 06:44:05;;;;;;;5.95;1.50;;;25.30;99.90;;;;;;5064791;28;20295;-84
2022/12/31 06:46:37;;;;;;;8.85;2.25;;;25.20;99.90;;;;;;5065406;28;20196;-84
2022/12/31 06:49:07;;;;;;;9.48;1.77;;;25.20;99.90;;;;;;5073164;28;20731;-85
2022/12/31 06:51:41;;;;;;;7.72;1.90;;;25.20;99.90;;;;;;5065583;28;20275;-85
2022/12/31 06:54:13;;;;;;;7.60;2.50;;;25.00;99.90;;;;;;5076571;28;20238;-86
2022/12/31 06:56:44;;;;;;;6.93;1.90;;;24.90;99.90;;;;;;5061913;28;20266;-85
2022/12/31 06:59:26;;;;;;;9.57;2.05;;;24.90;99.90;;;;;;5070593;28;20225;-85
2022/12/31 07:02:24;;;;;;;11.55;2.40;;;25.00;99.90;;;;;;5067451;28;20725;-85
2022/12/31 07:05:31;;;;;;;9.65;2.53;;;24.90;99.90;;;;;;5076562;28;20283;-85
2022/12/31 07:08:16;;;;;;;7.70;2.15;;;24.90;99.90;;;;;;5067900;28;20227;-86
2022/12/31 07:10:53;;;;;;;8.25;2.00;;;24.90;99.90;;;;;;5070422;28;20279;-85
2022/12/31 07:13:51;;;;;;;7.88;2.22;;;24.90;99.90;;;;;;5062731;28;20192;-85
2022/12/31 07:16:43;;;;;;;7.72;2.13;;;24.80;99.90;;;;;;5073416;28;20220;-84
2022/12/31 07:19:26;;;;;;;6.03;1.58;;;24.80;99.90;;;;;;5064984;28;20675;-84
2022/12/31 07:22:00;;;;;;;9.25;1.75;;;24.80;99.90;;;;;;5072099;28;20185;-86
2022/12/31 07:24:37;;;;;;;4.40;1.70;;;24.70;99.90;;;;;;5074779;28;20219;-88
2022/12/31 07:27:28;;;;;;;7.93;1.85;;;24.70;99.90;;;;;;5081504;28;20224;-88
2022/12/31 07:30:06;;;;;;;7.93;1.58;;;24.60;99.90;;;;;;5067303;28;20224;-87
2022/12/31 07:32:58;;;;;;;8.50;1.73;;;24.50;99.90;;;;;;5067413;28;20290;-87
2022/12/31 07:35:38;;;;;;;7.65;1.75;;;24.50;99.90;;;;;;5069704;28;21926;-87
2022/12/31 07:38:16;;;;;;;8.95;1.45;;;24.40;99.90;;;;;;5079399;28;20233;-88
2022/12/31 07:40:58;;;;;;;7.57;1.80;;;24.40;99.90;;;;;;5076453;28;20294;-88
2022/12/31 07:43:38;;;;;;;6.57;1.80;;;24.40;99.90;;;;;;5076180;28;20235;-89
2022/12/31 07:46:17;;;;;;;7.22;1.73;;;24.40;99.90;;;;;;5076136;28;20275;-88
2022/12/31 07:48:48;;;;;;;5.60;1.55;;;24.30;99.90;;;;;;5070847;28;20224;-89
2022/12/31 07:51:20;;;;;;;8.77;1.85;;;24.30;99.90;;;;;;5066305;28;20265;-87
2022/12/31 07:53:51;;;;;;;6.00;1.40;;;24.30;99.90;;;;;;5074808;28;20198;-88
2022/12/31 07:56:23;;;;;;;7.88;1.38;;;24.40;99.90;;;;;;5075921;28;20679;-88
2022/12/31 07:59:06;;;;;;;7.55;1.85;;;24.30;99.90;;;;;;5069439;28;20292;-88
2022/12/31 08:01:45;;;;;;;8.73;2.47;;;24.40;99.90;;;;;;5088414;28;20716;-88
2022/12/31 08:04:25;;;;;;;11.93;2.80;;;24.30;99.90;;;;;;5063331;28;20288;-87
2022/12/31 08:07:04;;;;;;;9.00;2.38;;;24.40;99.90;;;;;;5074898;28;20287;-87
2022/12/31 08:09:47;;;;;;;10.18;2.50;;;24.40;99.90;;;;;;5066239;28;20252;-89
2022/12/31 08:12:22;;;;;;;7.47;1.95;;;24.40;99.90;;;;;;5057633;28;20207;-87
2022/12/31 08:14:53;;;;;;;9.48;2.13;;;24.40;99.90;;;;;;5062566;28;20279;-87
2022/12/31 08:17:25;;;;;;;12.40;3.15;;;24.30;99.90;;;;;;5059069;28;20313;-87
2022/12/31 08:19:56;;;;;;;9.55;2.38;;;24.30;99.90;;;;;;5069143;28;20194;-88
2022/12/31 08:22:44;;;;;;;9.90;2.35;;;24.30;99.90;;;;;;5066943;28;20227;-86
2022/12/31 08:25:24;;;;;;;10.68;2.17;;;24.30;99.90;;;;;;5071768;28;20212;-85
2022/12/31 08:28:06;;;;;;;14.30;2.70;;;24.30;99.90;;;;;;5077001;28;20239;-86
2022/12/31 08:30:51;;;;;;;12.00;2.85;;;24.30;99.90;;;;;;5063844;28;20693;-87
2022/12/31 08:33:30;;;;;;;11.40;2.65;;;24.30;99.90;;;;;;5039804;28;20187;-88
2022/12/31 08:36:13;;;;;;;12.48;2.90;;;24.30;99.90;;;;;;5054583;28;20206;-88
2022/12/31 08:38:49;;;;;;;12.27;2.70;;;24.30;99.90;;;;;;5063615;28;20200;-88
2022/12/31 08:41:25;;;;;;;18.15;2.90;;;24.30;99.90;;;;;;5059336;28;20283;-88
2022/12/31 08:44:09;;;;;;;10.50;2.67;;;24.30;99.90;;;;;;5063596;28;20659;-88
2022/12/31 08:46:46;;;;;;;14.18;2.58;;;24.20;99.90;;;;;;5073163;28;20267;-89
2022/12/31 08:49:17;;;;;;;12.80;2.65;;;24.30;99.90;;;;;;5074147;28;20179;-88
2022/12/31 08:51:49;;;;;;;15.20;2.58;;;24.20;99.90;;;;;;5072982;28;20198;-87
2022/12/31 08:54:20;;;;;;;13.95;2.45;;;24.10;99.90;;;;;;5067245;28;20670;-88
2022/12/31 08:56:59;;;;;;;10.35;2.38;;;24.20;99.90;;;;;;5065939;28;20219;-88
2022/12/31 08:59:39;;;;;;;13.55;2.78;;;24.10;99.90;;;;;;5067366;28;20322;-91
2022/12/31 09:02:52;;;;;;;12.52;2.47;;;24.10;99.90;;;;;;5070829;28;20198;-91
2022/12/31 09:05:26;;;;;;;11.55;2.58;;;24.10;99.90;;;;;;4987027;28;20606;-88
2022/12/31 09:08:15;;;;;;;13.65;3.00;;;24.10;99.90;;;;;;5057790;28;20204;-89
2022/12/31 09:10:55;;;;;;;16.52;3.00;;;24.10;99.90;;;;;;5063222;28;20220;-87
2022/12/31 09:13:38;;;;;;;10.40;2.35;;;24.10;99.90;;;;;;5061643;28;20199;-87
2022/12/31 09:16:21;;;;;;;10.98;2.75;;;24.10;99.90;;;;;;5069898;28;20223;-88
2022/12/31 09:18:52;;;;;;;13.38;2.75;;;24.00;99.90;;;;;;5066166;28;20211;-86
2022/12/31 09:21:23;;;;;;;15.57;2.75;;;24.00;99.90;;;;;;5060150;28;20193;-88
2022/12/31 09:23:56;;;;;;;15.95;2.90;;;24.00;99.90;;;;;;5066522;28;20220;-87
2022/12/31 09:26:46;;;;;;;12.40;2.72;;;24.00;99.90;;;;;;5073594;28;20275;-87
2022/12/31 09:29:30;;;;;;;13.95;2.90;;;24.00;99.90;;;;;;5077666;28;20219;-88
2022/12/31 09:32:15;;;;;;;16.55;2.83;;;23.90;99.90;;;;;;5077100;28;20192;-90
2022/12/31 09:34:55;;;;;;;15.57;2.88;;;23.90;99.90;;;;;;5080875;28;20191;-89
2022/12/31 09:37:42;;;;;;;18.83;3.42;;;23.80;99.90;;;;;;5085284;28;20239;-87
2022/12/31 09:40:47;;;;;;;16.45;2.88;;;23.90;99.90;;;;;;5077323;28;20188;-88
2022/12/31 09:43:51;;;;;;;15.95;3.17;;;23.80;99.90;;;;;;5066542;28;20237;-89
2022/12/31 09:46:41;;;;;;;16.33;3.20;;;23.70;99.90;;;;;;5073367;28;20286;-90
2022/12/31 09:49:51;;;;;;;17.05;4.00;;;23.70;99.90;;;;;;5085068;28;20279;-92
2022/12/31 09:52:32;;;;;;;18.92;3.60;;;23.70;99.90;;;;;;5083187;28;20255;-89
2022/12/31 09:55:23;;;;;;;16.10;3.38;;;23.70;99.90;;;;;;5084841;28;20196;-88
2022/12/31 09:58:09;;;;;;;16.85;3.00;;;23.70;99.90;;;;;;5087464;28;20234;-90
2022/12/31 10:00:44;;;;;;;13.32;2.40;;;23.70;99.90;;;;;;5078571;28;20315;-89
2022/12/31 10:03:38;;;;;;;17.65;3.10;;;23.60;99.90;;;;;;5076770;28;20196;-89
2022/12/31 10:06:24;;;;;;;19.92;8.10;;;23.60;99.90;;;;;;5077280;28;20192;-88
2022/12/31 10:09:28;;;;;;;100.10;77.25;;;23.60;99.90;;;;;;5075301;28;20765;-88
2022/12/31 10:16:06;;;;;;;165.48;120.00;;;23.60;99.90;;;;;;5096142;28;20284;-88
2022/12/31 10:21:49;;;;;;;28.95;16.75;;;23.60;99.90;;;;;;5084420;28;20214;-87
2022/12/31 10:24:51;;;;;;;20.40;6.13;;;23.60;99.90;;;;;;5087588;28;20220;-88
2022/12/31 10:27:49;;;;;;;16.55;4.38;;;23.60;99.90;;;;;;5066057;28;20210;-90
2022/12/31 10:30:22;;;;;;;15.30;3.30;;;23.60;99.90;;;;;;5070664;28;20278;-89
2022/12/31 10:33:09;;;;;;;15.50;3.50;;;23.60;99.90;;;;;;5072335;28;20172;-89
2022/12/31 10:35:53;;;;;;;14.70;3.22;;;23.60;99.90;;;;;;5087660;28;20223;-89
2022/12/31 10:38:41;;;;;;;14.18;2.70;;;23.60;99.90;;;;;;5081784;28;20307;-87
2022/12/31 10:41:52;;;;;;;18.13;3.35;;;23.60;99.90;;;;;;5072736;28;20196;-89
2022/12/31 10:44:59;;;;;;;15.10;2.75;;;23.60;99.90;;;;;;5080622;28;20200;-88
2022/12/31 10:48:06;;;;;;;14.02;3.50;;;23.50;99.90;;;;;;5051109;28;20228;-89
2022/12/31 10:51:11;;;;;;;11.57;3.42;;;23.50;99.90;;;;;;5051948;28;20199;-87
2022/12/31 10:54:08;;;;;;;14.98;3.63;;;23.50;99.90;;;;;;5082788;28;20187;-87
2022/12/31 10:57:16;;;;;;;17.35;3.88;;;23.50;99.90;;;;;;5094606;28;20283;-85
2022/12/31 11:00:14;;;;;;;18.80;3.42;;;23.60;99.90;;;;;;5056149;28;20266;-86
2022/12/31 11:03:34;;;;;;;18.63;3.20;;;23.60;99.90;;;;;;5063375;28;20290;-87
2022/12/31 11:06:42;;;;;;;13.43;3.13;;;23.60;99.90;;;;;;5054158;28;20208;-87
2022/12/31 11:09:46;;;;;;;17.25;4.25;;;23.50;99.90;;;;;;5058930;28;20206;-87
2022/12/31 11:12:41;;;;;;;13.48;2.88;;;23.60;99.90;;;;;;5054058;28;20245;-88
2022/12/31 11:15:32;;;;;;;14.65;2.47;;;23.60;99.90;;;;;;5066013;28;20196;-93
2022/12/31 11:18:14;;;;;;;11.27;2.33;;;23.60;99.90;;;;;;5082892;28;20309;-87
2022/12/31 11:21:06;;;;;;;17.45;2.80;;;23.50;99.90;;;;;;5075403;28;20238;-90
2022/12/31 11:23:49;;;;;;;15.52;2.75;;;23.50;99.90;;;;;;5087149;28;20180;-89
2022/12/31 11:26:35;;;;;;;20.00;3.17;;;23.60;99.90;;;;;;5070846;28;20227;-90
2022/12/31 11:29:33;;;;;;;13.95;2.40;;;23.50;99.90;;;;;;5077122;28;20224;-91
2022/12/31 11:32:17;;;;;;;18.08;2.70;;;23.50;99.90;;;;;;5074036;28;20191;-89
2022/12/31 11:35:15;;;;;;;17.80;3.42;;;23.40;99.90;;;;;;5077644;28;20718;-88
2022/12/31 11:37:50;;;;;;;15.30;2.47;;;23.50;99.90;;;;;;5070903;28;20249;-89
2022/12/31 11:40:47;;;;;;;20.48;3.15;;;23.50;99.90;;;;;;5059754;28;20194;-91
2022/12/31 11:43:33;;;;;;;14.63;2.88;;;23.50;99.90;;;;;;5066917;28;20196;-91
2022/12/31 11:46:34;;;;;;;13.45;3.00;;;23.40;99.90;;;;;;5067084;28;20188;-92
2022/12/31 11:49:19;;;;;;;14.35;2.60;;;23.40;99.90;;;;;;5059699;28;20275;-93
2022/12/31 11:52:09;;;;;;;16.20;2.95;;;23.40;99.90;;;;;;5078200;28;20188;-90
2022/12/31 11:55:00;;;;;;;14.10;3.05;;;23.40;99.90;;;;;;5062791;28;20276;-89
2022/12/31 11:57:37;;;;;;;15.93;2.80;;;23.40;99.90;;;;;;5055991;28;20295;-89
2022/12/31 12:00:18;;;;;;;14.43;3.13;;;23.40;99.90;;;;;;5072408;28;20231;-90
2022/12/31 12:02:51;;;;;;;13.05;2.55;;;23.40;99.90;;;;;;5075619;28;20188;-91
2022/12/31 12:05:25;;;;;;;12.00;2.40;;;23.40;99.90;;;;;;5078037;28;20279;-90
2022/12/31 12:07:56;;;;;;;16.98;3.53;;;23.40;99.90;;;;;;5076843;28;20211;-91
2022/12/31 12:10:29;;;;;;;15.00;3.03;;;23.40;99.90;;;;;;5075024;28;20534;-93
2022/12/31 12:13:00;;;;;;;15.75;2.90;;;23.40;99.90;;;;;;5077601;28;20218;-89
2022/12/31 12:15:35;;;;;;;13.52;2.67;;;23.30;99.90;;;;;;5092260;28;20196;-89
2022/12/31 12:18:11;;;;;;;14.02;2.65;;;23.30;99.90;;;;;;5074629;28;20238;-88
2022/12/31 12:20:45;;;;;;;16.38;2.83;;;23.30;99.90;;;;;;5074948;28;20202;-89
2022/12/31 12:23:18;;;;;;;13.43;2.95;;;23.30;99.90;;;;;;5059592;28;20306;-88
2022/12/31 12:25:49;;;;;;;15.07;2.47;;;23.30;99.90;;;;;;5080261;28;20195;-89
2022/12/31 12:28:25;;;;;;;10.27;2.13;;;23.20;99.90;;;;;;5074801;28;20227;-90
2022/12/31 12:31:00;;;;;;;13.57;2.33;;;23.20;99.90;;;;;;5075364;28;20677;-90
2022/12/31 12:33:43;;;;;;;12.20;2.70;;;23.20;99.90;;;;;;5058803;28;20651;-89
2022/12/31 12:36:18;;;;;;;9.23;2.50;;;23.30;99.90;;;;;;5065315;28;20204;-89
2022/12/31 12:38:50;;;;;;;12.40;2.35;;;23.20;99.90;;;;;;5077343;28;20245;-89
2022/12/31 12:41:26;;;;;;;11.60;2.15;;;23.20;99.90;;;;;;5074860;28;20240;-88
2022/12/31 12:44:10;;;;;;;11.88;2.40;;;23.30;99.90;;;;;;5073686;28;20188;-89
2022/12/31 12:46:49;;;;;;;15.85;2.65;;;23.30;99.90;;;;;;5073926;28;20279;-90
2022/12/31 12:49:25;;;;;;;16.60;2.83;;;23.20;99.90;;;;;;5074403;28;20278;-87
2022/12/31 12:52:21;;;;;;;11.48;2.30;;;23.30;99.90;;;;;;5074447;28;20601;-89
2022/12/31 12:55:11;;;;;;;18.63;2.88;;;23.30;99.90;;;;;;5057741;28;20279;-89
2022/12/31 12:57:51;;;;;;;11.65;2.60;;;23.30;99.90;;;;;;5068162;28;20247;-90
2022/12/31 13:00:28;;;;;;;14.63;2.47;;;23.30;99.90;;;;;;5054115;28;20219;-90
2022/12/31 13:03:40;;;;;;;10.82;2.15;;;23.30;99.90;;;;;;5074383;28;20199;-90
2022/12/31 13:06:27;;;;;;;16.60;6.70;;;23.30;99.90;;;;;;5056116;28;20260;-93
2022/12/31 13:09:17;;;;;;;32.70;22.02;;;23.30;99.90;;;;;;5067391;28;20216;-91
2022/12/31 13:12:00;;;;;;;78.85;62.65;;;23.20;99.90;;;;;;5062237;28;20663;-89
2022/12/31 13:14:40;;;;;;;134.05;99.13;;;23.30;99.90;;;;;;5057022;28;20199;-89
2022/12/31 13:17:30;;;;;;;112.07;86.63;;;23.20;99.90;;;;;;5073518;28;20203;-90
2022/12/31 13:20:11;;;;;;;68.50;57.08;;;23.20;99.90;;;;;;5062966;28;20210;-91
2022/12/31 13:22:48;;;;;;;87.00;67.15;;;23.20;99.90;;;;;;5096235;28;20242;-91
2022/12/31 13:25:33;;;;;;;102.47;79.88;;;23.20;99.90;;;;;;5088031;28;20662;-91
2022/12/31 13:28:10;;;;;;;68.95;53.60;;;23.20;99.90;;;;;;5076141;28;20195;-91
2022/12/31 13:30:43;;;;;;;60.72;42.25;;;23.20;99.90;;;;;;5073780;28;20275;-89
2022/12/31 13:33:20;;;;;;;32.75;21.42;;;23.20;99.90;;;;;;5075386;28;20196;-88
2022/12/31 13:35:55;;;;;;;19.38;10.50;;;23.20;99.90;;;;;;5074055;28;20203;-88
2022/12/31 13:38:32;;;;;;;22.02;8.48;;;23.30;99.90;;;;;;5074340;28;20226;-87
2022/12/31 13:41:11;;;;;;;15.10;5.45;;;23.20;99.90;;;;;;5075199;28;20191;-88
2022/12/31 13:43:52;;;;;;;13.48;3.85;;;23.30;99.90;;;;;;5072945;28;20287;-87
2022/12/31 13:46:27;;;;;;;18.52;4.00;;;23.30;99.90;;;;;;5074989;28;20203;-87
2022/12/31 13:49:03;;;;;;;15.32;3.40;;;23.30;99.90;;;;;;5073875;28;20188;-86
2022/12/31 13:51:43;;;;;;;10.88;2.70;;;23.30;99.90;;;;;;5054013;28;20216;-86
2022/12/31 13:54:28;;;;;;;11.15;2.70;;;23.30;99.90;;;;;;5036415;28;20618;-88
2022/12/31 13:57:05;;;;;;;11.18;2.83;;;23.30;99.90;;;;;;5067416;28;20204;-88
2022/12/31 13:59:39;;;;;;;17.08;2.70;;;23.30;99.90;;;;;;5072760;28;20789;-86
2022/12/31 14:02:28;;;;;;;15.68;3.28;;;23.30;99.90;;;;;;5067452;28;20206;-90